createdAt,value
2022-08-23T00:00:12.950Z,24.61
2022-08-23T00:02:43.395Z,24.57
2022-08-23T00:05:13.672Z,24.53
2022-08-23T00:07:45.682Z,24.51
2022-08-23T00:10:16.582Z,24.53
2022-08-23T00:12:46.032Z,24.55
2022-08-23T00:15:18.140Z,24.56
2022-08-23T00:17:46.675Z,24.58
2022-08-23T00:20:18.670Z,24.58
2022-08-23T00:22:47.726Z,24.60
2022-08-23T00:25:16.744Z,24.60
2022-08-23T00:27:45.853Z,24.61
2022-08-23T00:30:16.136Z,24.60
2022-08-23T00:32:45.511Z,24.57
2022-08-23T00:35:26.608Z,24.57
2022-08-23T00:38:33.422Z,24.53
2022-08-23T00:40:51.219Z,24.50
2022-08-23T00:43:41.760Z,24.46
2022-08-23T00:46:44.922Z,24.42
2022-08-23T00:49:14.510Z,24.38
2022-08-23T00:51:52.432Z,24.40
2022-08-23T00:54:24.565Z,24.41
2022-08-23T00:56:54.961Z,24.38
2022-08-23T00:59:24.417Z,24.36
2022-08-23T01:01:54.743Z,24.36
2022-08-23T01:04:23.375Z,24.37
2022-08-23T01:06:58.439Z,24.37
2022-08-23T01:09:27.321Z,24.39
2022-08-23T01:12:05.209Z,24.38
2022-08-23T01:14:37.709Z,24.40
2022-08-23T01:17:14.993Z,24.39
2022-08-23T01:19:50.028Z,24.38
2022-08-23T01:22:24.141Z,24.35
2022-08-23T01:25:07.438Z,24.34
2022-08-23T01:27:41.285Z,24.32
2022-08-23T01:30:18.609Z,24.31
2022-08-23T01:32:50.108Z,24.28
2022-08-23T01:37:54.622Z,24.25
2022-08-23T01:40:24.691Z,24.21
2022-08-23T01:42:53.541Z,24.19
2022-08-23T01:45:22.723Z,24.16
2022-08-23T01:47:51.259Z,24.13
2022-08-23T01:50:20.628Z,24.09
2022-08-23T01:52:49.131Z,24.05
2022-08-23T01:55:21.946Z,24.01
2022-08-23T01:57:57.036Z,23.99
2022-08-23T02:00:30.874Z,23.94
2022-08-23T02:03:01.111Z,23.88
2022-08-23T02:05:30.786Z,23.87
2022-08-23T02:08:20.263Z,23.83
2022-08-23T02:10:51.052Z,23.80
2022-08-23T02:13:21.989Z,23.77
2022-08-23T02:15:52.544Z,23.75
2022-08-23T02:18:22.717Z,23.73
2022-08-23T02:20:53.774Z,23.70
2022-08-23T02:23:24.214Z,23.64
2022-08-23T02:25:53.783Z,23.62
2022-08-23T02:28:25.796Z,23.62
2022-08-23T02:30:55.261Z,23.61
2022-08-23T02:33:24.319Z,23.53
2022-08-23T02:35:53.093Z,23.49
2022-08-23T02:38:22.505Z,23.46
2022-08-23T02:40:53.056Z,23.44
2022-08-23T02:43:36.440Z,23.41
2022-08-23T02:46:07.219Z,23.38
2022-08-23T02:48:36.415Z,23.37
2022-08-23T02:51:09.331Z,23.34
2022-08-23T02:53:38.638Z,23.31
2022-08-23T02:56:21.292Z,23.29
2022-08-23T02:58:54.205Z,23.25
2022-08-23T03:01:26.663Z,23.22
2022-08-23T03:03:57.958Z,23.21
2022-08-23T03:06:28.302Z,23.15
2022-08-23T03:08:57.520Z,23.13
2022-08-23T03:11:26.678Z,23.07
2022-08-23T03:13:57.678Z,23.04
2022-08-23T03:16:26.850Z,23.00
2022-08-23T03:18:55.350Z,22.99
2022-08-23T03:21:24.082Z,22.99
2022-08-23T03:23:53.819Z,22.94
2022-08-23T03:26:23.076Z,22.93
2022-08-23T03:28:52.251Z,22.94
2022-08-23T03:31:24.268Z,22.91
2022-08-23T03:34:02.911Z,22.93
2022-08-23T03:36:31.645Z,22.91
2022-08-23T03:39:01.456Z,22.96
2022-08-23T03:41:30.734Z,22.96
2022-08-23T03:43:59.542Z,22.93
2022-08-23T03:46:34.233Z,22.93
2022-08-23T03:49:04.228Z,22.93
2022-08-23T03:51:43.898Z,22.95
2022-08-23T03:54:12.456Z,22.95
2022-08-23T03:56:51.156Z,22.90
2022-08-23T03:59:20.141Z,22.91
2022-08-23T04:01:50.286Z,22.90
2022-08-23T04:04:19.267Z,22.91
2022-08-23T04:07:10.861Z,22.90
2022-08-23T04:09:39.645Z,22.91
2022-08-23T04:12:12.100Z,22.91
2022-08-23T04:14:46.990Z,22.97
2022-08-23T04:17:21.002Z,23.00
2022-08-23T04:19:50.725Z,22.98
2022-08-23T04:22:21.564Z,22.98
2022-08-23T04:24:50.579Z,22.97
2022-08-23T04:27:19.108Z,22.94
2022-08-23T04:29:49.224Z,22.92
2022-08-23T04:32:26.644Z,22.91
2022-08-23T04:34:58.896Z,22.95
2022-08-23T04:37:28.706Z,22.94
2022-08-23T04:40:15.795Z,22.98
2022-08-23T04:42:44.682Z,22.92
2022-08-23T04:45:14.340Z,22.92
2022-08-23T04:47:48.223Z,22.93
2022-08-23T04:50:17.669Z,22.92
2022-08-23T04:53:05.074Z,22.95
2022-08-23T04:55:38.918Z,22.97
2022-08-23T04:58:08.364Z,22.99
2022-08-23T05:00:50.855Z,23.07
2022-08-23T05:03:24.352Z,23.04
2022-08-23T05:05:54.427Z,23.05
2022-08-23T05:08:29.044Z,23.14
2022-08-23T05:11:00.542Z,23.20
2022-08-23T05:13:30.064Z,23.26
2022-08-23T05:16:01.502Z,23.31
2022-08-23T05:18:36.388Z,23.37
2022-08-23T05:21:05.333Z,23.36
2022-08-23T05:23:35.586Z,23.42
2022-08-23T05:26:13.576Z,23.45
2022-08-23T05:28:45.452Z,23.55
2022-08-23T05:31:18.838Z,23.60
2022-08-23T05:34:15.105Z,23.60
2022-08-23T05:36:55.626Z,23.60
2022-08-23T05:39:36.203Z,23.64
2022-08-23T05:42:14.505Z,23.62
2022-08-23T05:44:43.759Z,23.64
2022-08-23T05:47:15.926Z,23.74
2022-08-23T05:50:12.368Z,23.77
2022-08-23T05:52:41.664Z,23.79
2022-08-23T05:55:11.163Z,23.73
2022-08-23T05:57:42.622Z,23.75
2022-08-23T06:00:14.186Z,23.83
2022-08-23T06:02:49.341Z,23.84
2022-08-23T06:05:22.949Z,23.91
2022-08-23T06:07:52.232Z,24.02
2022-08-23T06:10:23.751Z,24.07
2022-08-23T06:12:59.055Z,24.17
2022-08-23T06:15:27.608Z,24.19
2022-08-23T06:17:56.458Z,24.27
2022-08-23T06:20:27.151Z,24.34
2022-08-23T06:23:00.502Z,24.42
2022-08-23T06:25:30.330Z,24.49
2022-08-23T06:28:25.844Z,24.55
2022-08-23T06:30:57.435Z,24.60
2022-08-23T06:33:30.576Z,24.67
2022-08-23T06:36:20.676Z,24.77
2022-08-23T06:39:16.972Z,24.85
2022-08-23T06:42:02.160Z,24.91
2022-08-23T06:44:32.752Z,24.97
2022-08-23T06:47:28.647Z,25.05
2022-08-23T06:49:58.669Z,25.13
2022-08-23T06:52:49.632Z,25.19
2022-08-23T06:55:35.042Z,25.26
2022-08-23T06:58:16.413Z,25.35
2022-08-23T07:01:42.060Z,25.44
2022-08-23T07:04:09.685Z,25.51
2022-08-23T07:06:56.926Z,25.63
2022-08-23T07:09:27.300Z,25.75
2022-08-23T07:11:57.144Z,25.87
2022-08-23T07:14:26.023Z,25.97
2022-08-23T07:16:57.424Z,26.07
2022-08-23T07:19:29.301Z,26.15
2022-08-23T07:21:58.534Z,26.26
2022-08-23T07:24:33.004Z,26.35
2022-08-23T07:27:07.308Z,26.41
2022-08-23T07:29:40.571Z,26.45
2022-08-23T07:32:10.957Z,26.48
2022-08-23T07:34:39.918Z,26.55
2022-08-23T07:37:15.540Z,26.63
2022-08-23T07:39:46.474Z,26.73
2022-08-23T07:42:23.394Z,26.81
2022-08-23T07:44:55.497Z,26.85
2022-08-23T07:47:28.703Z,26.89
2022-08-23T07:49:58.969Z,26.96
2022-08-23T07:52:28.330Z,27.02
2022-08-23T07:54:58.465Z,27.08
2022-08-23T07:57:45.702Z,27.17
2022-08-23T08:00:46.747Z,27.19
2022-08-23T08:03:34.007Z,27.26
2022-08-23T08:06:22.041Z,27.30
2022-08-23T08:08:51.415Z,27.40
2022-08-23T08:11:25.488Z,27.50
2022-08-23T08:13:54.904Z,27.59
2022-08-23T08:16:26.908Z,27.70
2022-08-23T08:18:56.870Z,27.79
2022-08-23T08:21:54.483Z,27.86
2022-08-23T08:24:39.631Z,27.93
2022-08-23T08:27:13.930Z,27.99
2022-08-23T08:29:45.111Z,28.08
2022-08-23T08:32:14.311Z,28.15
2022-08-23T08:34:43.913Z,28.23
2022-08-23T08:37:13.457Z,28.32
2022-08-23T08:39:45.934Z,28.43
2022-08-23T08:42:32.596Z,28.51
2022-08-23T08:45:06.219Z,28.60
2022-08-23T08:47:47.170Z,28.73
2022-08-23T08:50:24.239Z,28.83
2022-08-23T08:53:03.331Z,28.95
2022-08-23T08:55:54.818Z,29.04
2022-08-23T08:58:29.262Z,29.11
2022-08-23T09:00:58.359Z,29.20
2022-08-23T09:03:33.900Z,29.26
2022-08-23T09:06:13.793Z,29.32
2022-08-23T09:08:55.074Z,29.38
2022-08-23T09:11:36.698Z,29.48
2022-08-23T09:14:20.921Z,29.56
2022-08-23T09:16:53.440Z,29.58
2022-08-23T09:19:25.130Z,29.65
2022-08-23T09:21:58.813Z,29.72
2022-08-23T09:24:28.321Z,29.77
2022-08-23T09:27:05.856Z,29.88
2022-08-23T09:29:38.584Z,30.04
2022-08-23T09:32:26.694Z,30.16
2022-08-23T09:35:08.072Z,30.24
2022-08-23T09:37:50.831Z,30.36
2022-08-23T09:40:21.648Z,30.41
2022-08-23T09:43:04.807Z,30.50
2022-08-23T09:45:36.750Z,30.63
2022-08-23T09:48:08.815Z,30.69
2022-08-23T09:50:54.677Z,30.74
2022-08-23T09:53:28.240Z,30.79
2022-08-23T09:56:11.238Z,30.78
2022-08-23T09:58:43.473Z,30.84
2022-08-23T10:01:21.975Z,30.87
2022-08-23T10:04:12.801Z,30.92
2022-08-23T10:06:43.437Z,30.99
2022-08-23T10:09:25.124Z,31.07
2022-08-23T10:11:54.643Z,31.19
2022-08-23T10:14:28.810Z,31.38
2022-08-23T10:17:28.942Z,31.74
2022-08-23T10:20:10.276Z,31.94
2022-08-23T10:22:46.473Z,32.14
2022-08-23T10:25:34.504Z,32.26
2022-08-23T10:28:27.791Z,32.36
2022-08-23T10:31:03.569Z,32.74
2022-08-23T10:33:48.228Z,33.23
2022-08-23T10:36:22.043Z,33.40
2022-08-23T10:38:58.020Z,33.41
2022-08-23T10:41:47.460Z,33.42
2022-08-23T10:44:26.299Z,33.58
2022-08-23T10:47:07.442Z,33.92
2022-08-23T10:49:39.782Z,34.07
2022-08-23T10:52:14.476Z,33.96
2022-08-23T10:54:59.511Z,34.18
2022-08-23T10:57:34.224Z,34.16
2022-08-23T11:00:06.535Z,33.92
2022-08-23T11:02:45.654Z,33.69
2022-08-23T11:05:31.310Z,33.73
2022-08-23T11:08:05.793Z,33.60
2022-08-23T11:10:55.923Z,33.42
2022-08-23T11:13:35.138Z,33.27
2022-08-23T11:16:14.569Z,33.32
2022-08-23T11:18:47.288Z,33.22
2022-08-23T11:21:50.464Z,33.16
2022-08-23T11:24:52.539Z,33.09
2022-08-23T11:27:45.573Z,32.99
2022-08-23T11:30:47.754Z,32.87
2022-08-23T11:33:25.270Z,32.92
2022-08-23T11:36:16.767Z,32.87
2022-08-23T11:39:03.711Z,32.96
2022-08-23T11:41:33.730Z,32.98
2022-08-23T11:44:26.040Z,32.98
2022-08-23T11:47:01.508Z,32.87
2022-08-23T11:50:01.211Z,32.82
2022-08-23T11:52:56.266Z,32.75
2022-08-23T11:56:02.264Z,32.66
2022-08-23T11:58:46.526Z,32.54
2022-08-23T12:01:17.850Z,32.48
2022-08-23T12:03:58.642Z,32.40
2022-08-23T12:06:50.684Z,32.28
2022-08-23T12:09:54.067Z,32.33
2022-08-23T12:12:34.702Z,32.19
2022-08-23T12:15:08.779Z,32.22
2022-08-23T12:18:13.389Z,32.23
2022-08-23T12:20:43.382Z,32.13
2022-08-23T12:23:21.981Z,32.06
2022-08-23T12:26:11.271Z,32.11
2022-08-23T12:28:49.338Z,32.14
2022-08-23T12:31:24.617Z,32.12
2022-08-23T12:34:04.723Z,32.10
2022-08-23T12:36:40.339Z,32.08
2022-08-23T12:39:15.925Z,32.11
2022-08-23T12:41:55.811Z,32.11
2022-08-23T12:44:28.277Z,32.22
2022-08-23T12:46:57.164Z,32.28
2022-08-23T12:49:29.011Z,32.37
2022-08-23T12:52:00.211Z,32.37
2022-08-23T12:54:37.357Z,32.43
2022-08-23T12:57:11.702Z,32.43
2022-08-23T12:59:46.510Z,32.46
2022-08-23T13:02:22.013Z,32.46
2022-08-23T13:04:50.808Z,32.47
2022-08-23T13:07:23.199Z,32.42
2022-08-23T13:09:55.325Z,32.45
2022-08-23T13:12:25.029Z,32.46
2022-08-23T13:14:57.490Z,32.42
2022-08-23T13:17:36.745Z,32.45
2022-08-23T13:20:25.329Z,32.36
2022-08-23T13:23:02.732Z,32.30
2022-08-23T13:25:34.186Z,32.30
2022-08-23T13:28:05.541Z,32.27
2022-08-23T13:30:37.866Z,32.30
2022-08-23T13:33:21.058Z,32.32
2022-08-23T13:35:51.672Z,32.37
2022-08-23T13:38:25.178Z,32.39
2022-08-23T13:40:58.850Z,32.40
2022-08-23T13:43:31.540Z,32.41
2022-08-23T13:46:11.891Z,32.41
2022-08-23T13:48:48.472Z,32.36
2022-08-23T13:51:37.074Z,32.36
2022-08-23T13:54:08.203Z,32.34
2022-08-23T13:56:39.361Z,32.43
2022-08-23T13:59:23.636Z,32.39
2022-08-23T14:01:57.263Z,32.40
2022-08-23T14:04:25.672Z,32.38
2022-08-23T14:06:54.379Z,32.38
2022-08-23T14:09:22.858Z,32.29
2022-08-23T14:11:56.088Z,32.30
2022-08-23T14:14:25.020Z,32.34
2022-08-23T14:16:54.539Z,32.32
2022-08-23T14:22:13.257Z,32.29
2022-08-23T14:24:42.343Z,32.19
2022-08-23T14:27:11.426Z,32.15
2022-08-23T14:29:39.958Z,32.09
2022-08-23T14:32:08.609Z,31.99
2022-08-23T14:34:38.418Z,31.94
2022-08-23T14:39:56.044Z,31.83
2022-08-23T14:42:25.260Z,31.82
2022-08-23T14:44:53.809Z,31.87
2022-08-23T14:47:22.239Z,31.84
2022-08-23T14:49:53.867Z,31.82
2022-08-23T14:52:23.161Z,31.76
2022-08-23T14:54:51.810Z,31.75
2022-08-23T14:57:20.644Z,31.77
2022-08-23T14:59:49.113Z,31.70
2022-08-23T15:02:24.622Z,31.67
2022-08-23T15:04:55.805Z,31.64
2022-08-23T15:07:24.386Z,31.60
2022-08-23T15:09:55.707Z,31.61
2022-08-23T15:15:22.053Z,31.57
2022-08-23T15:17:53.458Z,31.50
2022-08-23T15:20:25.591Z,31.47
2022-08-23T15:22:55.267Z,31.43
2022-08-23T15:25:24.993Z,31.42
2022-08-23T15:27:53.872Z,31.42
2022-08-23T15:30:23.690Z,31.35
2022-08-23T15:33:00.277Z,31.32
2022-08-23T15:35:32.006Z,31.32
2022-08-23T15:38:00.633Z,31.33
2022-08-23T15:40:29.079Z,31.30
2022-08-23T15:42:57.551Z,31.24
2022-08-23T15:45:26.087Z,31.25
2022-08-23T15:47:56.963Z,31.22
2022-08-23T15:50:31.165Z,31.25
2022-08-23T15:52:59.739Z,31.22
2022-08-23T15:55:32.449Z,31.22
2022-08-23T15:58:01.366Z,31.24
2022-08-23T16:00:30.328Z,31.12
2022-08-23T16:03:18.923Z,31.09
2022-08-23T16:05:52.191Z,31.05
2022-08-23T16:08:24.892Z,31.01
2022-08-23T16:10:53.600Z,30.96
2022-08-23T16:13:22.356Z,30.85
2022-08-23T16:15:51.554Z,30.79
2022-08-23T16:18:20.705Z,30.77
2022-08-23T16:20:54.088Z,30.74
2022-08-23T16:23:23.410Z,30.76
2022-08-23T16:25:52.958Z,30.71
2022-08-23T16:28:21.451Z,30.74
2022-08-23T16:30:50.159Z,30.79
2022-08-23T16:33:18.681Z,30.81
2022-08-23T16:35:47.075Z,30.77
2022-08-23T16:38:17.052Z,30.78
2022-08-23T16:40:45.501Z,30.80
2022-08-23T16:43:13.966Z,30.78
2022-08-23T16:45:42.460Z,30.79
2022-08-23T16:48:14.672Z,30.73
2022-08-23T16:50:43.915Z,30.71
2022-08-23T16:53:12.407Z,30.69
2022-08-23T16:55:42.214Z,30.67
2022-08-23T16:58:10.986Z,30.67
2022-08-23T17:00:39.695Z,30.64
2022-08-23T17:03:08.374Z,30.61
2022-08-23T17:05:37.724Z,30.56
2022-08-23T17:08:07.449Z,30.49
2022-08-23T17:10:35.998Z,30.44
2022-08-23T17:13:06.848Z,30.39
2022-08-23T17:15:38.339Z,30.32
2022-08-23T17:18:07.030Z,30.21
2022-08-23T17:20:39.146Z,30.15
2022-08-23T17:23:08.156Z,30.08
2022-08-23T17:25:38.075Z,30.03
2022-08-23T17:28:07.886Z,29.98
2022-08-23T17:30:36.345Z,29.96
2022-08-23T17:33:05.053Z,29.98
2022-08-23T17:35:34.417Z,29.94
2022-08-23T17:38:03.804Z,29.96
2022-08-23T17:40:35.577Z,29.97
2022-08-23T17:43:05.128Z,29.97
2022-08-23T17:45:41.375Z,29.96
2022-08-23T17:48:09.926Z,29.94
2022-08-23T17:50:39.528Z,29.89
2022-08-23T17:53:08.346Z,29.82
2022-08-23T17:55:37.800Z,29.79
2022-08-23T17:58:06.921Z,29.77
2022-08-23T18:00:39.496Z,29.72
2022-08-23T18:03:08.617Z,29.69
2022-08-23T18:05:41.209Z,29.68
2022-08-23T18:08:09.868Z,29.67
2022-08-23T18:10:38.272Z,29.63
2022-08-23T18:13:06.958Z,29.59
2022-08-23T18:15:37.742Z,29.56
2022-08-23T18:18:06.291Z,29.53
2022-08-23T18:20:35.012Z,29.51
2022-08-23T18:23:03.830Z,29.49
2022-08-23T18:25:32.579Z,29.45
2022-08-23T18:28:10.284Z,29.43
2022-08-23T18:30:45.912Z,29.42
2022-08-23T18:33:14.584Z,29.42
2022-08-23T18:35:44.270Z,29.40
2022-08-23T18:38:14.012Z,29.34
2022-08-23T18:40:47.419Z,29.32
2022-08-23T18:43:18.194Z,29.28
2022-08-23T18:45:49.761Z,29.25
2022-08-23T18:48:19.642Z,29.24
2022-08-23T18:50:49.835Z,29.19
2022-08-23T18:53:19.633Z,29.17
2022-08-23T18:55:50.016Z,29.13
2022-08-23T18:58:19.232Z,29.08
2022-08-23T19:00:51.800Z,29.05
2022-08-23T19:03:20.617Z,29.05
2022-08-23T19:05:49.563Z,29.05
2022-08-23T19:08:19.461Z,29.03
2022-08-23T19:10:48.416Z,29.00
2022-08-23T19:13:17.081Z,28.97
2022-08-23T19:15:45.499Z,28.91
2022-08-23T19:18:16.195Z,28.92
2022-08-23T19:20:44.717Z,28.88
2022-08-23T19:23:13.679Z,28.86
2022-08-23T19:25:45.398Z,28.84
2022-08-23T19:28:14.712Z,28.81
2022-08-23T19:30:43.804Z,28.79
2022-08-23T19:33:12.345Z,28.74
2022-08-23T19:35:42.455Z,28.66
2022-08-23T19:38:12.219Z,28.60
2022-08-23T19:40:40.873Z,28.54
2022-08-23T19:43:10.268Z,28.45
2022-08-23T19:45:41.216Z,28.36
2022-08-23T19:48:10.136Z,28.28
2022-08-23T19:50:40.292Z,28.22
2022-08-23T19:53:10.551Z,28.16
2022-08-23T19:55:41.836Z,28.07
2022-08-23T19:58:14.719Z,28.06
2022-08-23T20:00:44.108Z,28.01
2022-08-23T20:03:13.027Z,27.97
2022-08-23T20:05:42.194Z,27.95
2022-08-23T20:08:12.271Z,27.92
2022-08-23T20:10:41.049Z,27.90
2022-08-23T20:13:09.531Z,27.84
2022-08-23T20:15:39.747Z,27.84
2022-08-23T20:18:08.223Z,27.84
2022-08-23T20:20:36.658Z,27.79
2022-08-23T20:23:22.826Z,27.72
2022-08-23T20:25:52.725Z,27.64
2022-08-23T20:28:25.752Z,27.61
2022-08-23T20:30:54.903Z,27.56
2022-08-23T20:33:23.653Z,27.53
2022-08-23T20:35:52.063Z,27.49
2022-08-23T20:38:32.934Z,27.41
2022-08-23T20:41:03.638Z,27.35
2022-08-23T20:43:33.766Z,27.29
2022-08-23T20:46:04.054Z,27.33
2022-08-23T20:48:33.203Z,27.30
2022-08-23T20:51:01.997Z,27.26
2022-08-23T20:53:30.772Z,27.23
2022-08-23T20:56:00.038Z,27.17
2022-08-23T20:58:30.430Z,27.13
2022-08-23T21:00:59.178Z,27.07
2022-08-23T21:03:29.979Z,27.03
2022-08-23T21:06:05.237Z,26.95
2022-08-23T21:08:34.972Z,26.87
2022-08-23T21:11:07.564Z,26.85
2022-08-23T21:13:41.355Z,26.86
2022-08-23T21:16:10.128Z,26.82
2022-08-23T21:18:38.718Z,26.76
2022-08-23T21:21:07.879Z,26.77
2022-08-23T21:23:37.718Z,26.78
2022-08-23T21:26:07.770Z,26.76
2022-08-23T21:28:37.990Z,26.72
2022-08-23T21:31:07.847Z,26.74
2022-08-23T21:33:39.979Z,26.74
2022-08-23T21:36:09.223Z,26.73
2022-08-23T21:38:38.095Z,26.68
2022-08-23T21:41:10.402Z,26.63
2022-08-23T21:43:40.538Z,26.59
2022-08-23T21:46:09.115Z,26.58
2022-08-23T21:48:37.671Z,26.52
2022-08-23T21:51:06.229Z,26.53
2022-08-23T21:53:34.980Z,26.51
2022-08-23T21:56:03.423Z,26.55
2022-08-23T21:58:31.919Z,26.53
2022-08-23T22:01:01.929Z,26.54
2022-08-23T22:03:30.449Z,26.55
2022-08-23T22:05:58.949Z,26.54
2022-08-23T22:08:27.479Z,26.51
2022-08-23T22:10:57.269Z,26.53
2022-08-23T22:13:28.261Z,26.53
2022-08-23T22:15:56.824Z,26.53
2022-08-23T22:18:26.724Z,26.52
2022-08-23T22:20:55.362Z,26.51
2022-08-23T22:23:23.816Z,26.52
2022-08-23T22:25:52.325Z,26.54
2022-08-23T22:28:20.793Z,26.51
2022-08-23T22:30:49.279Z,26.52
2022-08-23T22:33:18.457Z,26.48
2022-08-23T22:35:49.024Z,26.48
2022-08-23T22:38:18.078Z,26.46
2022-08-23T22:40:50.086Z,26.46
2022-08-23T22:43:19.404Z,26.42
2022-08-23T22:45:52.203Z,26.41
2022-08-23T22:48:21.656Z,26.38
2022-08-23T22:50:51.985Z,26.40
2022-08-23T22:53:20.669Z,26.36
2022-08-23T22:55:52.576Z,26.35
2022-08-23T22:58:21.010Z,26.32
2022-08-23T23:00:49.390Z,26.31
2022-08-23T23:03:17.882Z,26.28
2022-08-23T23:05:46.624Z,26.27
2022-08-23T23:08:28.404Z,26.24
2022-08-23T23:10:58.311Z,26.26
2022-08-23T23:13:27.718Z,26.26
2022-08-23T23:15:57.729Z,26.26
2022-08-23T23:18:27.738Z,26.26
2022-08-23T23:20:59.663Z,26.26
2022-08-23T23:23:31.767Z,26.25
2022-08-23T23:26:00.398Z,26.26
2022-08-23T23:28:29.201Z,26.27
2022-08-23T23:30:59.501Z,26.26
2022-08-23T23:33:28.134Z,26.22
2022-08-23T23:35:57.341Z,26.20
2022-08-23T23:38:25.858Z,26.15
2022-08-23T23:40:55.669Z,26.16
2022-08-23T23:43:24.136Z,26.14
2022-08-23T23:45:52.693Z,26.13
2022-08-23T23:48:21.237Z,26.12
2022-08-23T23:50:49.757Z,26.09
2022-08-23T23:53:18.263Z,26.06
2022-08-23T23:55:48.232Z,25.98
2022-08-23T23:58:18.232Z,25.95
